Mossel Bay, South Africa

9:56 AM SAST on September 02, 2014 (GMT +0200)
George | Change Station
CLOSE
Current Station
Airport
Location: George,
Elevation: 633 ft
Nearby Weather Stations

Elev 633 ft 34.01 °S, 22.38 °E | Updated 56 minutes ago

Clear
Clear
79 °F
Feels Like 79 °F
N
2
Wind Variable Wind from Variable

Today
High -- | Low -- °F
--% Chance of Precip.
Yesterday
High -- | Low -- °F
Precip. -- in
6:48 AM 6:13 PM
Waxing Crescent, 49% visible
Pressure 30.12 in
Visibility -9999.0 miles
Clouds
Dew Point 39 °F
Humidity 24%
Rainfall 0.00 in
Snow Depth Not available.
UV Not available.
Pollen Not available.
Air Quality Not available.
Flu Activity Not available.
METAR FAGG 020700Z VRB02KT CAVOK 26/04 Q1020

More Conditions Fewer Conditions

Pressure 30.12 in
Visibility -9999.0 miles
Clouds
Dew Point 39 °F
Humidity 24%
Rainfall 0.00 in
Snow Depth Not available.
UV Not available.
Pollen Not available.
Air Quality Not available.
Flu Activity Not available.
METAR FAGG 020700Z VRB02KT CAVOK 26/04 Q1020

More Conditions Fewer Conditions

10-Day Weather Forecast

Almanac

Astronomy

Sep. 02, 2014 Rise Set
Actual Time 6:48 AM SAST 6:13 PM SAST
Civil Twilight 6:23 AM SAST 6:39 PM SAST
Nautical Twilight 5:54 AM SAST 7:08 PM SAST
Astronomical Twilight 5:25 AM SAST 7:37 PM SAST
Moon 11:27 AM SAST 12:42 AM SAST
Length of Visible Light 12h 15m
Length of Day
11h 24m
Tomorrow will be 2m 1s longer.
Waxing Crescent, 49% of the Moon is Illuminated
Today
Waxing Crescent
Sep 2
First Quarter
Sep 8
Full
Sep 15
Last Quarter
Sep 24
New

Yesterday's Extremes

Country Highs Country Lows

Community

WunderPhotos

Upload Photos

1,749,589 photos uploaded!

WunderBlogs® & News

Nearby

Snow Depth

Not available.

Earthquake Activity

City Distance Mag. Time & Date
No recent earthquake activity has been reported nearby.
Minimum magnitude displayed is 2.5.

Coastal Water Temperatures

Place Temperature
No Stations Reporting

Nearby Weather Stations